Latest Coastal Weather Observations for Avalon

IDV60701

Issued at 11:32 am EST Thursday 29 September 2016 (issued every 10 minutes, with the page automatically refreshed every 10 minutes)

About coastal observations | Map of coastal stations | Coastal observations for VIC | Marine services | Other Formats
Station Details ID: 087113 Name: AVALON AIRPORT Lat: -38.03 Lon: 144.48 Height: 10.6 m
Data from the previous 72 hours. | See also: Recent months at Avalon
Date/Time
EST
Temp
°C
Wind Pressure Rain since
9am
mm
Weather Cloud Vis
km
Sea
Height
m
Swell
Dir  Spd
kts
Gust
kts
hPa Trend Height
m
Period
s
Dir
29/11:00am 15.4 N 17 24 989.2 - 0.0 - - 10 - - - -
29/10:30am 15.5 NNW 14 20 989.1 - 0.0 - Partly cloudy 10 - - - -
29/10:00am 14.5 NNW 13 17 988.7 - 0.0 - - 10 - - - -
29/09:30am 14.1 NW 16 21 988.6 - 0.0 - - 10 - - - -
29/09:00am 13.2 NW 16 21 989.3 - 2.4 - Cloudy 10 - - - -
29/08:30am 13.2 NNW 14 18 989.1 - 2.4 - Partly cloudy 10 - - - -
29/08:00am 12.6 NW 10 14 988.9 - 2.4 - - 10 - - - -
29/07:30am 12.3 NW 6 7 988.9 - 2.4 - - 10 - - - -
29/07:00am 12.7 NNW 7 11 988.9 - 2.4 - - 10 - - - -
29/06:30am 12.6 N 7 9 988.0 - 2.4 - Partly cloudy 10 - - - -
29/06:00am 13.0 NNE 10 14 987.2 - 2.4 - - 10 - - - -
29/05:30am 13.2 NNE 12 16 987.5 - 2.4 - - 10 - - - -
29/05:00am 13.1 NNE 14 19 987.7 - 2.4 - - 10 - - - -
29/04:30am 12.8 NNE 13 19 987.5 - 2.4 - Partly cloudy 10 - - - -
29/04:00am 13.2 NE 19 26 987.7 - 2.4 - - 10 - - - -
29/03:30am 13.3 NNE 22 29 988.1 - 2.4 - - 10 - - - -
29/03:00am 13.2 NNE 20 30 988.2 - 2.4 Rain Cloudy 10 - - - -
29/02:40am 13.0 NE 22 32 987.9 - 2.4 - Partly cloudy 10 - - - -
29/02:30am 12.7 NE 18 24 988.7 - 2.4 - Partly cloudy 10 - - - -
29/02:00am 12.6 NE 15 25 990.6 - 1.8 - Partly cloudy 10 - - - -
29/01:54am 12.8 NE 15 25 990.8 - 1.6 - Partly cloudy 10 - - - -
29/01:50am 12.8 NE 15 23 990.9 - 1.6 - Partly cloudy 10 - - - -
29/01:30am 12.4 NE 10 13 991.6 - 1.4 - Partly cloudy 10 - - - -
29/01:00am 12.5 NNE 11 15 992.4 - 1.4 - Partly cloudy 10 - - - -
29/12:30am 12.9 NE 14 19 992.8 - 1.2 - Partly cloudy 10 - - - -
29/12:00am 13.6 ENE 13 20 993.1 - 0.4 Showers Mostly cloudy 10 - - - -
 
Date/Time
EST
Temp
°C
Wind Pressure Rain since
9am
mm
Weather Cloud Vis
km
Sea
Height
m
Swell
Dir  Spd
kts
Gust
kts
hPa Trend Height
m
Period
s
Dir
28/11:30pm 13.8 NE 13 18 994.5 - 0.0 - Partly cloudy 10 - - - -
28/11:00pm 14.8 NE 15 20 995.1 - 0.0 - Partly cloudy 10 - - - -
28/10:30pm 14.7 NE 14 21 996.4 - 0.0 - Partly cloudy 10 - - - -
28/10:00pm 14.8 NE 13 21 997.8 - 0.0 - Cloudy 10 - - - -
28/09:30pm 14.7 NE 11 15 997.9 - 0.0 - Cloudy 10 - - - -
28/09:00pm 14.5 NE 11 14 998.7 - 0.0 - Cloudy 10 - - - -
28/08:30pm 14.6 NE 18 25 998.5 - 0.0 - - 10 - - - -
28/08:00pm 14.6 NE 15 21 999.0 - 0.0 - - 10 - - - -
28/07:30pm 14.7 NE 15 22 999.2 - 0.0 - - 10 - - - -
28/07:00pm 14.9 ENE 16 19 999.4 - 0.0 - - 10 - - - -
28/06:30pm 14.8 NE 15 19 1000.6 - 0.0 - - 10 - - - -
28/06:00pm 14.9 NE 12 17 1001.0 - 0.0 - Mostly cloudy 10 - - - -
28/05:30pm 15.3 NE 15 21 1001.1 - 0.0 - - 10 - - - -
28/05:00pm 15.6 NE 14 21 1001.5 - 0.0 - - 10 - - - -
28/04:30pm 15.9 NNE 17 24 1002.2 - 0.0 - - 10 - - - -
28/04:13pm 16.2 NNE 17 27 1002.1 - 0.0 - - 10 - - - -
28/04:00pm 16.4 NNE 19 27 1002.3 - 0.0 - - 10 - - - -
28/03:30pm 16.7 NNE 18 27 1002.2 - 0.0 - - 10 - - - -
28/03:02pm 17.2 NE 18 29 1002.6 - 0.0 - - 10 - - - -
28/03:00pm 17.3 NE 17 24 1002.9 - 0.0 - - 10 - - - -
28/02:30pm 17.6 NE 20 29 1003.4 - 0.0 - - 10 - - - -
28/02:25pm 18.1 NE 19 29 1003.5 - 0.0 - - 10 - - - -
28/02:00pm 19.0 NE 17 21 1004.0 - 0.0 - - 10 - - - -
28/01:30pm 18.8 NE 17 23 1005.2 - 0.0 - - 10 - - - -
28/01:00pm 18.6 NE 16 22 1006.1 - 0.0 - Partly cloudy 10 - - - -
28/12:30pm 17.8 NNE 11 15 1007.2 - 0.0 - Partly cloudy 10 - - - -
28/12:00pm 17.8 NE 10 14 1008.3 - 0.0 - Mostly clear 10 - - - -
28/11:30am 17.8 NNE 9 13 1009.3 - 0.0 - Partly cloudy 10 - - - -
28/11:00am 17.3 NNE 8 13 1010.1 - 0.0 - Partly cloudy 10 - - - -
28/10:30am 16.8 N 8 11 1010.6 - 0.0 - - 10 - - - -
28/10:00am 15.6 N 8 11 1011.0 - 0.0 - - 10 - - - -
28/09:30am 15.6 N 7 8 1011.3 - 0.0 - - 10 - - - -
28/09:00am 14.4 N 8 11 1011.7 - 0.0 - Mostly clear 10 - - - -
28/08:30am 13.3 N 9 12 1012.0 - 0.0 - - 10 - - - -
28/08:00am 12.0 N 8 11 1012.2 - 0.0 - - 10 - - - -
28/07:30am 11.0 N 9 10 1012.3 - 0.0 - - 10 - - - -
28/07:00am 7.7 N 6 7 1012.4 - 0.0 - - 10 - - - -
28/06:30am 5.8 N 5 6 1012.3 - 0.0 - - 10 - - - -
28/06:00am 5.9 N 6 7 1012.2 - 0.0 - - 10 - - - -
28/05:30am 6.1 N 4 5 1012.0 - 0.0 - - 10 - - - -
28/05:00am 6.9 N 6 6 1012.1 - 0.0 - - 10 - - - -
28/04:30am 6.7 NNW 6 7 1012.0 - 0.0 - Partly cloudy 10 - - - -
28/04:00am 6.2 NNW 7 7 1012.0 - 0.0 - Partly cloudy 10 - - - -
28/03:30am 7.2 NNW 5 6 1012.0 - 0.0 - - 10 - - - -
28/03:00am 7.0 NW 6 6 1012.1 - 0.0 - - 10 - - - -
28/02:30am 6.7 NW 5 6 1012.2 - 0.0 - - 10 - - - -
28/02:00am 6.1 NNW 5 6 1012.2 - 0.0 - - 10 - - - -
28/01:30am 5.9 N 3 4 1012.2 - 0.0 - - 10 - - - -
28/01:00am 6.2 N 4 4 1012.4 - 0.0 - - 10 - - - -
28/12:30am 6.0 CALM 0 0 1012.5 - 0.0 - - 10 - - - -
28/12:00am 6.0 NNW 4 5 1012.5 - 0.0 - - 10 - - - -
 
Date/Time
EST
Temp
°C
Wind Pressure Rain since
9am
mm
Weather Cloud Vis
km
Sea
Height
m
Swell
Dir  Spd
kts
Gust
kts
hPa Trend Height
m
Period
s
Dir
27/11:30pm 6.8 WNW 3 4 1012.5 - 0.0 - Partly cloudy 10 - - - -
27/11:00pm 7.9 N 5 8 1012.4 - 0.0 - Partly cloudy 10 - - - -
27/10:30pm 7.4 N 4 5 1012.7 - 0.0 - Partly cloudy 10 - - - -
27/10:00pm 7.0 NNE 2 4 1012.8 - 0.0 - Cloudy 10 - - - -
27/09:30pm 8.1 N 6 7 1012.8 - 0.0 - Cloudy 10 - - - -
27/09:00pm 8.4 NNE 3 5 1012.9 - 0.0 - Mostly clear 10 - - - -
27/08:30pm 9.5 NNW 5 6 1013.0 - 0.0 - Partly cloudy 10 - - - -
27/08:00pm 10.3 N 6 6 1013.0 - 0.0 - - 10 - - - -
27/07:30pm 10.3 N 5 6 1012.9 - 0.0 - - 10 - - - -
27/07:00pm 10.4 NW 4 5 1012.9 - 0.0 - - 10 - - - -
27/06:30pm 11.0 W 6 6 1012.8 - 0.0 - - 10 - - - -
27/06:00pm 13.4 W 5 7 1012.6 - 0.0 - - 10 - - - -
27/05:30pm 14.7 W 7 10 1012.4 - 0.0 - Partly cloudy 10 - - - -
27/05:00pm 14.7 W 10 14 1012.2 - 0.0 - Partly cloudy 10 - - - -
27/04:30pm 14.6 WSW 11 14 1011.9 - 0.0 - Partly cloudy 10 - - - -
27/04:00pm 14.5 W 12 16 1011.6 - 0.0 - Partly cloudy 10 - - - -
27/03:30pm 14.2 W 11 17 1011.5 - 0.0 - Partly cloudy 10 - - - -
27/03:00pm 15.3 WSW 12 17 1011.5 - 0.0 - Cloudy 10 - - - -
27/02:30pm 14.9 W 16 21 1011.6 - 0.0 - Partly cloudy 10 - - - -
27/02:00pm 15.3 W 17 21 1011.7 - 0.0 - Partly cloudy 10 - - - -
27/01:30pm 12.9 W 15 21 1011.9 - 0.0 - Partly cloudy 10 - - - -
27/01:29pm 12.7 W 15 25 1011.9 - 0.0 - Partly cloudy 10 - - - -
27/01:00pm 12.6 W 17 23 1011.9 - 0.0 - Partly cloudy 10 - - - -
27/12:36pm 12.9 W 16 21 1011.8 - 0.0 - Partly cloudy 10 - - - -
27/12:33pm 13.0 W 16 23 1011.8 - 0.0 - Partly cloudy 10 - - - -
27/12:30pm 12.8 W 17 23 1011.8 - 0.0 - Partly cloudy 10 - - - -
27/12:17pm 12.7 W 16 23 1011.8 - 0.0 - Partly cloudy 6 - - - -
27/12:16pm 12.8 W 17 23 1011.8 - 0.0 - Partly cloudy 6 - - - -
27/12:03pm 13.1 WNW 19 26 1011.7 - 0.0 - Partly cloudy 10 - - - -
27/12:00pm 13.0 WNW 19 25 1011.7 - 0.0 - Cloudy 10 - - - -
27/11:52am 13.2 WNW 20 25 1011.6 - 0.0 - Partly cloudy 10 - - - -
27/11:30am 12.3 WNW 17 22 1011.5 - 0.0 - Partly cloudy 10 - - - -
27/11:00am 14.2 WNW 13 19 1011.5 - 0.0 - Partly cloudy 10 - - - -
27/10:30am 14.2 W 13 18 1011.6 - 0.0 - Partly cloudy 10 - - - -
27/10:00am 12.2 WNW 15 20 1011.7 - 0.0 - Partly cloudy 10 - - - -
27/09:58am 12.4 WNW 15 20 1011.7 - 0.0 - Partly cloudy 10 - - - -
27/09:30am 11.8 WNW 14 20 1011.5 - 0.0 - Partly cloudy 10 - - - -
27/09:00am 10.6 WNW 14 18 1011.5 - 8.8 - Mostly cloudy 10 - - - -
27/08:30am 9.9 WNW 15 21 1011.3 - 8.8 - Cloudy 10 - - - -
27/08:00am 9.0 WNW 10 14 1011.1 - 8.8 - Partly cloudy 10 - - - -
27/07:58am 9.1 WNW 10 14 1011.1 - 8.8 - Partly cloudy 10 - - - -
27/07:30am 7.5 WNW 9 11 1011.0 - 8.8 - - 10 - - - -
27/07:00am 5.9 WNW 7 8 1010.7 - 8.8 - - 10 - - - -
27/06:30am 5.2 WNW 9 10 1010.3 - 8.8 - - 10 - - - -
27/06:00am 4.8 WNW 7 8 1009.9 - 8.8 - - 10 - - - -
27/05:30am 4.5 W 4 5 1009.7 - 8.8 - - 10 - - - -
27/05:00am 4.7 WNW 5 6 1009.6 - 8.8 - - 10 - - - -
27/04:30am 4.4 CALM 0 0 1009.5 - 8.8 - - 10 - - - -
27/04:00am 5.2 W 4 5 1009.3 - 8.8 - - 10 - - - -
27/03:30am 5.7 WNW 5 7 1009.2 - 8.8 - - 10 - - - -
27/03:00am 6.6 WNW 10 12 1009.0 - 8.8 - - 10 - - - -
27/02:30am 6.8 WNW 9 10 1009.3 - 8.8 - Partly cloudy 10 - - - -
27/02:00am 7.9 WNW 8 11 1009.3 - 8.8 - Partly cloudy 10 - - - -
27/01:30am 8.4 WNW 10 13 1009.6 - 8.6 - Cloudy 10 - - - -
27/01:00am 8.6 WNW 11 14 1009.6 - 8.6 - Partly cloudy 10 - - - -
27/12:30am 8.1 NNW 7 8 1009.6 - 8.6 - Partly cloudy 10 - - - -
27/12:00am 8.1 NW 4 5 1009.6 - 8.6 - Cloudy 10 - - - -
 
Date/Time
EST
Temp
°C
Wind Pressure Rain since
9am
mm
Weather Cloud Vis
km
Sea
Height
m
Swell
Dir  Spd
kts
Gust
kts
hPa Trend Height
m
Period
s
Dir
26/11:30pm 8.1 WNW 5 7 1009.7 - 8.6 - Cloudy 10 - - - -
26/11:00pm 8.3 WNW 6 8 1009.8 - 8.6 - Cloudy 10 - - - -
26/10:30pm 7.9 N 3 5 1010.1 - 8.6 - Cloudy 10 - - - -
26/10:00pm 8.0 NNW 6 7 1010.1 - 8.6 - Partly cloudy 10 - - - -
26/09:30pm 8.2 NW 7 10 1009.9 - 8.6 - Partly cloudy 10 - - - -
26/09:22pm 8.5 NNW 10 13 1009.9 - 8.6 - Partly cloudy 10 - - - -
26/09:05pm 8.9 WNW 15 25 1010.2 - 8.0 - Partly cloudy 5 - - - -
26/09:00pm 8.2 WNW 11 19 1010.5 - 7.2 Showers Cloudy 6 - - - -
26/08:59pm 8.1 WNW 11 18 1010.6 - 7.2 - Partly cloudy 6 - - - -
26/08:30pm 8.3 W 11 14 1010.6 - 4.8 - Partly cloudy 10 - - - -
26/08:00pm 8.2 W 12 16 1010.7 - 4.8 - Partly cloudy 10 - - - -
26/07:50pm 8.3 W 14 19 1010.4 - 4.8 - Partly cloudy 10 - - - -
26/07:30pm 9.5 WNW 11 28 1010.5 - 3.8 - Partly cloudy 2 - - - -
26/07:24pm 10.4 WNW 7 11 1009.9 - 3.0 - Partly cloudy 2 - - - -
26/07:00pm 10.6 NNW 9 13 1009.5 - 2.0 - Partly cloudy 10 - - - -
26/06:30pm 10.6 N 7 9 1008.9 - 1.6 - Partly cloudy 10 - - - -
26/06:00pm 11.1 NW 18 25 1009.2 - 1.2 Rain Cloudy 10 - - - -
26/05:33pm 13.5 NW 15 28 1008.6 - 0.8 - Partly cloudy 10 - - - -
26/05:30pm 13.7 NNW 12 20 1008.6 - 0.8 - Partly cloudy 10 - - - -
26/05:00pm 14.1 NNW 8 9 1008.2 - 0.8 - Partly cloudy 10 - - - -
26/04:30pm 14.9 NNW 10 14 1008.0 - 0.8 - Partly cloudy 10 - - - -
26/04:00pm 15.0 ENE 5 8 1008.3 - 0.8 - Partly cloudy 10 - - - -
26/03:30pm 14.9 N 8 12 1008.4 - 0.8 - Partly cloudy 10 - - - -
26/03:00pm 15.3 N 8 12 1008.8 - 0.8 Rain Cloudy 10 - - - -
26/02:30pm 16.1 NNW 8 11 1009.0 - 0.8 - Partly cloudy 10 - - - -
26/02:00pm 13.3 E 4 6 1009.7 - 0.2 - Partly cloudy 10 - - - -
26/01:30pm 14.1 E 9 11 1009.8 - 0.0 - Partly cloudy 10 - - - -
26/01:00pm 14.7 SE 9 12 1010.0 - 0.0 - Partly cloudy 10 - - - -
26/12:30pm 15.3 NW 7 12 1010.4 - 0.0 - Partly cloudy 10 - - - -
26/12:00pm 16.5 WNW 6 11 1011.0 - 0.0 - Mostly cloudy 10 - - - -

Other Formats:

Comma delimited format used in spreadsheet applications
http://www.bom.gov.au/fwo/IDV60701/IDV60701.94854.axf

JavaScript Object Notation format (JSON) in row-major order
http://www.bom.gov.au/fwo/IDV60701/IDV60701.94854.json